Time;durP1;ratioP1;P1;durP2;ratioP2;P2;SDS_P1;SDS_P2;PMS_P1;PMS_P2;Temp;Humidity;BMP_temperature;BMP_pressure;BME280_temperature;BME280_humidity;BME280_pressure;Samples;Min_cycle;Max_cycle;Signal;HPM_P1;HPM_P2
2023/02/27 00:01:59;;;;;;;1.33;1.10;;;0.20;93.10;;;;;;6249536;28;20056;-78
2023/02/27 00:05:01;;;;;;;3.93;1.87;;;0.20;93.10;;;;;;6249549;28;20053;-78
2023/02/27 00:08:03;;;;;;;1.67;1.23;;;0.20;93.20;;;;;;6253824;28;20053;-78
2023/02/27 00:11:06;;;;;;;1.90;1.70;;;0.20;93.50;;;;;;6253102;28;20080;-78
2023/02/27 00:14:07;;;;;;;1.73;1.30;;;0.20;93.60;;;;;;6254351;28;20056;-78
2023/02/27 00:17:09;;;;;;;2.47;1.57;;;0.20;93.80;;;;;;6253821;28;20049;-78
2023/02/27 00:20:16;;;;;;;2.23;1.70;;;0.20;93.90;;;;;;6253960;28;20045;-78
2023/02/27 00:23:18;;;;;;;6.15;1.60;;;0.20;94.00;;;;;;6254452;28;20496;-78
2023/02/27 00:26:21;;;;;;;0.90;0.90;;;0.20;94.00;;;;;;6232192;28;20046;-78
2023/02/27 00:29:23;;;;;;;4.60;1.60;;;0.20;94.00;;;;;;6228849;28;20050;-78
2023/02/27 00:32:25;;;;;;;1.40;1.30;;;0.10;94.20;;;;;;6228652;28;20073;-78
2023/02/27 00:35:26;;;;;;;2.53;1.63;;;0.10;94.30;;;;;;6228469;28;20113;-78
2023/02/27 00:38:29;;;;;;;1.83;1.27;;;0.10;94.20;;;;;;6229071;28;20050;-78
2023/02/27 00:41:32;;;;;;;1.83;1.37;;;0.10;94.20;;;;;;6228456;28;20056;-78
2023/02/27 00:44:33;;;;;;;4.00;1.67;;;0.00;94.30;;;;;;6228874;28;20053;-78
2023/02/27 00:47:35;;;;;;;2.90;1.40;;;0.00;94.50;;;;;;6228828;28;20084;-78
2023/02/27 00:50:37;;;;;;;6.00;1.70;;;0.00;94.60;;;;;;6228382;28;20054;-77
2023/02/27 00:53:39;;;;;;;2.97;1.63;;;0.00;94.80;;;;;;6226212;28;20053;-77
2023/02/27 00:56:43;;;;;;;2.47;1.93;;;0.00;94.80;;;;;;6226552;28;20425;-77
2023/02/27 00:59:45;;;;;;;2.27;1.10;;;0.00;95.00;;;;;;6224764;28;20042;-77
2023/02/27 01:02:47;;;;;;;2.27;1.20;;;0.00;95.10;;;;;;6224320;28;20139;-77
2023/02/27 01:05:48;;;;;;;2.70;1.67;;;0.00;95.30;;;;;;6225194;28;20057;-77
2023/02/27 01:08:50;;;;;;;2.00;1.23;;;0.00;95.20;;;;;;6226619;28;20053;-77
2023/02/27 01:11:53;;;;;;;1.43;1.33;;;0.00;95.30;;;;;;6224236;28;20551;-77
2023/02/27 01:14:55;;;;;;;2.23;1.77;;;0.00;95.40;;;;;;6225097;28;20053;-77
2023/02/27 01:17:56;;;;;;;1.43;1.23;;;0.00;95.60;;;;;;6223880;28;20042;-77
2023/02/27 01:20:58;;;;;;;2.17;1.60;;;0.00;95.70;;;;;;6226938;28;20050;-77
2023/02/27 01:24:00;;;;;;;1.50;1.33;;;0.00;95.90;;;;;;6227268;28;20060;-78
2023/02/27 01:27:03;;;;;;;0.87;0.80;;;0.00;95.80;;;;;;6226293;28;20056;-78
2023/02/27 01:30:06;;;;;;;2.93;1.40;;;0.00;96.00;;;;;;6223671;28;20057;-78
2023/02/27 01:33:08;;;;;;;1.90;1.60;;;0.00;96.20;;;;;;6224603;28;20049;-78
2023/02/27 01:36:10;;;;;;;6.20;1.80;;;0.00;96.30;;;;;;6223210;28;20049;-77
2023/02/27 01:39:12;;;;;;;4.50;1.40;;;-0.10;96.20;;;;;;6223877;28;20052;-77
2023/02/27 01:42:21;;;;;;;1.97;1.30;;;-0.10;96.30;;;;;;6223746;28;20057;-78
2023/02/27 01:45:32;;;;;;;2.07;1.97;;;-0.10;96.30;;;;;;6226553;28;20048;-78
2023/02/27 01:48:36;;;;;;;3.77;1.87;;;-0.10;96.50;;;;;;6227485;28;20050;-78
2023/02/27 01:51:42;;;;;;;3.57;1.33;;;-0.10;96.50;;;;;;6242685;28;20514;-78
2023/02/27 01:54:44;;;;;;;1.30;1.20;;;-0.10;96.60;;;;;;6248896;28;20048;-78
2023/02/27 01:57:49;;;;;;;1.87;1.67;;;-0.20;96.70;;;;;;6251296;28;20060;-77
2023/02/27 02:00:51;;;;;;;5.27;2.00;;;-0.20;96.90;;;;;;6255087;28;20049;-77
2023/02/27 02:04:00;;;;;;;2.27;1.30;;;-0.10;96.90;;;;;;6256232;28;20438;-77
2023/02/27 02:07:04;;;;;;;2.50;1.17;;;-0.20;96.90;;;;;;6254910;28;20068;-77
2023/02/27 02:10:07;;;;;;;3.07;2.77;;;-0.20;97.10;;;;;;6254739;28;20419;-77
2023/02/27 02:13:10;;;;;;;2.47;2.20;;;-0.20;97.10;;;;;;6255584;28;20046;-77
2023/02/27 02:16:29;;;;;;;1.80;1.70;;;-0.20;97.30;;;;;;6255065;28;20041;-77
2023/02/27 02:19:53;;;;;;;2.80;1.95;;;-0.20;97.70;;;;;;6255044;28;20053;-77
2023/02/27 02:23:36;;;;;;;3.07;2.13;;;-0.30;97.50;;;;;;6221584;28;20046;-78
2023/02/27 02:26:48;;;;;;;2.10;1.40;;;-0.30;97.60;;;;;;6245368;28;20052;-78
2023/02/27 02:30:23;;;;;;;2.33;2.10;;;-0.30;97.70;;;;;;6246160;28;20041;-77
2023/02/27 02:33:52;;;;;;;3.50;2.00;;;-0.30;97.70;;;;;;6222630;28;20061;-79
2023/02/27 02:37:33;;;;;;;2.05;1.95;;;-0.30;97.80;;;;;;6248593;28;20045;-78
2023/02/27 02:40:43;;;;;;;3.43;2.33;;;-0.30;97.80;;;;;;6218277;28;20060;-77
2023/02/27 02:43:57;;;;;;;2.70;1.60;;;-0.40;97.90;;;;;;6247327;28;20045;-78
2023/02/27 02:47:05;;;;;;;3.13;1.77;;;-0.30;98.10;;;;;;6246873;28;20056;-78
2023/02/27 02:50:12;;;;;;;2.23;1.83;;;-0.30;98.40;;;;;;6246985;28;20045;-78
2023/02/27 02:53:26;;;;;;;2.37;1.30;;;-0.30;98.50;;;;;;6247233;28;20060;-78
2023/02/27 02:56:36;;;;;;;2.03;1.73;;;-0.30;98.50;;;;;;6247089;28;20041;-78
2023/02/27 02:59:44;;;;;;;2.67;2.37;;;-0.30;98.50;;;;;;6246926;28;20057;-78
2023/02/27 03:02:49;;;;;;;2.20;1.50;;;-0.40;98.60;;;;;;6246443;28;20052;-78
2023/02/27 03:05:58;;;;;;;2.43;1.23;;;-0.30;98.80;;;;;;6246486;28;20045;-79
2023/02/27 03:09:12;;;;;;;4.90;2.50;;;-0.30;98.80;;;;;;6246831;28;20050;-78
2023/02/27 03:12:21;;;;;;;5.37;1.67;;;-0.40;98.80;;;;;;6246342;28;20045;-78
2023/02/27 03:15:27;;;;;;;1.50;1.00;;;-0.40;98.80;;;;;;6246646;28;20041;-78
2023/02/27 03:18:34;;;;;;;3.80;1.93;;;-0.40;98.90;;;;;;6246429;28;20042;-78
2023/02/27 03:21:41;;;;;;;1.80;1.70;;;-0.40;98.90;;;;;;6246046;28;20053;-78
2023/02/27 03:24:47;;;;;;;2.53;1.58;;;-0.40;98.90;;;;;;6246990;28;20053;-77
2023/02/27 03:27:54;;;;;;;4.03;1.83;;;-0.40;99.00;;;;;;6245838;28;20049;-78
2023/02/27 03:31:00;;;;;;;1.33;1.23;;;-0.40;99.10;;;;;;6246477;28;20053;-78
2023/02/27 03:34:11;;;;;;;2.43;1.67;;;-0.40;99.20;;;;;;6246465;28;20138;-78
2023/02/27 03:37:24;;;;;;;3.50;1.80;;;-0.40;99.10;;;;;;6246278;28;20120;-78
2023/02/27 03:40:30;;;;;;;1.20;1.00;;;-0.50;99.10;;;;;;6247350;28;20069;-78
2023/02/27 03:43:45;;;;;;;6.37;2.10;;;-0.40;99.20;;;;;;6250333;28;20068;-78
2023/02/27 03:46:46;;;;;;;1.60;1.03;;;-0.50;99.20;;;;;;6250559;28;20080;-78
2023/02/27 03:49:50;;;;;;;1.97;1.00;;;-0.50;99.20;;;;;;6250754;28;20420;-78
2023/02/27 03:52:52;;;;;;;2.90;2.10;;;-0.50;99.20;;;;;;6251403;28;20104;-78
2023/02/27 03:55:56;;;;;;;4.33;1.50;;;-0.50;99.30;;;;;;6251231;28;20038;-77
2023/02/27 03:58:59;;;;;;;2.17;2.00;;;-0.50;99.40;;;;;;6251378;28;20053;-78
2023/02/27 04:02:02;;;;;;;3.77;2.07;;;-0.40;99.50;;;;;;6251155;28;20068;-77
2023/02/27 04:05:04;;;;;;;4.57;1.60;;;-0.50;99.40;;;;;;6250755;28;20045;-78
2023/02/27 04:08:34;;;;;;;2.63;2.13;;;-0.50;99.40;;;;;;6249946;28;20053;-78
2023/02/27 04:11:53;;;;;;;7.57;2.93;;;-0.50;99.40;;;;;;6236463;28;20511;-79
2023/02/27 04:15:08;;;;;;;3.00;1.70;;;-0.50;99.50;;;;;;6249844;28;20512;-78
2023/02/27 04:18:20;;;;;;;4.53;2.03;;;-0.50;99.50;;;;;;6240948;28;20073;-78
2023/02/27 04:21:27;;;;;;;2.47;1.37;;;-0.60;99.50;;;;;;6225358;28;20076;-78
2023/02/27 04:24:37;;;;;;;2.28;1.10;;;-0.60;99.50;;;;;;6225819;28;20061;-78
2023/02/27 04:27:44;;;;;;;1.20;1.10;;;-0.60;99.60;;;;;;6224872;28;20058;-77
2023/02/27 04:31:00;;;;;;;2.83;2.13;;;-0.60;99.60;;;;;;6224978;28;20046;-78
2023/02/27 04:34:07;;;;;;;1.80;1.07;;;-0.60;99.80;;;;;;6225040;28;20292;-78
2023/02/27 04:37:12;;;;;;;5.00;1.53;;;-0.60;99.80;;;;;;6225691;28;20390;-79
2023/02/27 04:40:16;;;;;;;11.67;2.77;;;-0.60;99.80;;;;;;6225062;28;20052;-79
2023/02/27 04:43:20;;;;;;;3.20;2.23;;;-0.60;99.70;;;;;;6224915;28;20050;-78
2023/02/27 04:46:27;;;;;;;2.60;1.70;;;-0.60;99.70;;;;;;6225136;28;20054;-78
2023/02/27 04:49:33;;;;;;;5.15;2.17;;;-0.70;99.70;;;;;;6224861;28;20050;-79
2023/02/27 04:52:39;;;;;;;1.73;1.00;;;-0.70;99.80;;;;;;6224711;28;20054;-78
2023/02/27 04:55:45;;;;;;;7.50;2.57;;;-0.70;99.80;;;;;;6224605;28;20046;-78
2023/02/27 04:58:50;;;;;;;5.80;2.30;;;-0.70;99.90;;;;;;6226969;28;20046;-77
2023/02/27 05:01:57;;;;;;;2.20;1.67;;;-0.70;99.90;;;;;;6231221;28;20046;-77
2023/02/27 05:05:01;;;;;;;2.57;1.60;;;-0.70;99.90;;;;;;6234420;28;20054;-77
2023/02/27 05:08:09;;;;;;;2.10;1.47;;;-0.70;99.90;;;;;;6234056;28;20049;-77
2023/02/27 05:11:16;;;;;;;4.90;1.90;;;-0.70;99.90;;;;;;6233010;28;20050;-77
2023/02/27 05:14:22;;;;;;;5.50;1.73;;;-0.70;99.90;;;;;;6233148;28;20048;-77
2023/02/27 05:17:31;;;;;;;5.20;1.93;;;-0.70;99.90;;;;;;6233697;28;20042;-77
2023/02/27 05:20:44;;;;;;;1.63;1.53;;;-0.70;99.90;;;;;;6233057;28;20049;-77
2023/02/27 05:23:54;;;;;;;1.50;1.30;;;-0.70;99.90;;;;;;6232502;28;20061;-77
2023/02/27 05:27:17;;;;;;;7.47;2.27;;;-0.70;99.90;;;;;;6233288;28;20049;-77
2023/02/27 05:30:23;;;;;;;1.97;1.77;;;-0.70;99.90;;;;;;6232711;28;20424;-77
2023/02/27 05:33:33;;;;;;;2.57;1.80;;;-0.70;99.90;;;;;;6232795;28;20064;-78
2023/02/27 05:36:39;;;;;;;1.50;1.30;;;-0.80;99.90;;;;;;6233177;28;20050;-77
2023/02/27 05:39:43;;;;;;;2.60;1.97;;;-0.80;99.90;;;;;;6232647;28;20050;-77
2023/02/27 05:42:50;;;;;;;3.13;1.70;;;-0.80;99.90;;;;;;6232681;28;20057;-78
2023/02/27 05:45:59;;;;;;;4.83;1.70;;;-0.80;99.90;;;;;;6244316;28;20052;-79
2023/02/27 05:49:07;;;;;;;1.27;0.97;;;-0.80;99.90;;;;;;6244958;28;20046;-79
2023/02/27 05:52:13;;;;;;;2.90;2.00;;;-0.80;99.90;;;;;;6242517;28;20049;-79
2023/02/27 05:55:18;;;;;;;7.37;1.80;;;-0.80;99.90;;;;;;6242507;28;20056;-79
2023/02/27 05:58:25;;;;;;;2.70;1.23;;;-0.80;99.90;;;;;;6243483;28;20056;-78
2023/02/27 06:01:27;;;;;;;3.50;2.03;;;-0.90;99.90;;;;;;6243917;28;20264;-79
2023/02/27 06:04:30;;;;;;;1.87;1.77;;;-0.80;99.90;;;;;;6243913;28;20052;-79
2023/02/27 06:07:33;;;;;;;6.93;2.63;;;-0.80;99.90;;;;;;6242634;28;20532;-79
2023/02/27 06:10:34;;;;;;;2.57;1.70;;;-0.80;99.90;;;;;;6242955;28;20054;-79
2023/02/27 06:13:36;;;;;;;1.77;1.63;;;-0.80;99.90;;;;;;6243695;28;20056;-78
2023/02/27 06:16:38;;;;;;;3.33;3.00;;;-0.80;99.90;;;;;;6248746;28;20041;-79
2023/02/27 06:19:41;;;;;;;2.67;1.63;;;-0.80;99.90;;;;;;6268540;28;20068;-79
2023/02/27 06:22:43;;;;;;;4.60;2.00;;;-0.80;99.90;;;;;;6268258;28;20049;-79
2023/02/27 06:25:45;;;;;;;4.27;1.50;;;-0.80;99.90;;;;;;6267948;28;20444;-79
2023/02/27 06:28:47;;;;;;;3.17;1.93;;;-0.80;99.90;;;;;;6269474;28;20144;-79
2023/02/27 06:31:49;;;;;;;4.40;3.00;;;-0.80;99.90;;;;;;6268583;28;20049;-79
2023/02/27 06:34:52;;;;;;;28.47;14.03;;;-0.80;99.90;;;;;;6268590;28;20057;-79
2023/02/27 06:37:54;;;;;;;20.47;10.73;;;-0.90;99.90;;;;;;6269104;28;20045;-79
2023/02/27 06:40:55;;;;;;;32.83;28.87;;;-0.80;99.90;;;;;;6269483;28;20058;-79
2023/02/27 06:43:57;;;;;;;10.63;5.40;;;-0.80;99.90;;;;;;6268917;28;20063;-79
2023/02/27 06:46:59;;;;;;;3.93;2.23;;;-0.80;99.90;;;;;;6269003;28;20050;-79
2023/02/27 06:50:02;;;;;;;1.30;1.20;;;-0.80;99.90;;;;;;6269952;28;20052;-79
2023/02/27 06:53:05;;;;;;;3.60;2.30;;;-0.80;99.90;;;;;;6270885;28;20045;-78
2023/02/27 06:56:08;;;;;;;2.27;1.90;;;-0.70;99.90;;;;;;6264531;28;20049;-78
2023/02/27 06:59:10;;;;;;;5.43;1.90;;;-0.60;99.90;;;;;;6265825;28;20050;-79
2023/02/27 07:02:13;;;;;;;3.23;2.00;;;-0.60;99.90;;;;;;6265555;28;20046;-79
2023/02/27 07:05:16;;;;;;;5.27;2.30;;;-0.50;99.90;;;;;;6265990;28;20045;-79
2023/02/27 07:08:18;;;;;;;28.00;21.43;;;-0.40;99.90;;;;;;6264981;28;20041;-79
2023/02/27 07:11:20;;;;;;;6.83;6.17;;;-0.30;99.90;;;;;;6266294;28;20045;-78
2023/02/27 07:14:22;;;;;;;16.30;13.67;;;-0.20;99.80;;;;;;6264869;28;20056;-78
2023/02/27 07:17:23;;;;;;;4.83;2.70;;;-0.10;99.80;;;;;;6265067;28;20050;-79
2023/02/27 07:20:26;;;;;;;3.07;2.60;;;0.00;99.70;;;;;;6266486;28;20051;-78
2023/02/27 07:23:28;;;;;;;4.47;2.33;;;0.10;99.50;;;;;;6266088;28;20059;-78
2023/02/27 07:26:30;;;;;;;2.53;2.10;;;0.30;99.40;;;;;;6264794;28;20045;-78
2023/02/27 07:29:31;;;;;;;5.87;2.40;;;0.40;99.10;;;;;;6267281;28;20057;-79
2023/02/27 07:32:33;;;;;;;3.70;3.33;;;0.50;98.90;;;;;;6266368;28;20059;-79
2023/02/27 07:35:36;;;;;;;3.10;2.67;;;0.60;98.60;;;;;;6265934;28;20041;-79
2023/02/27 07:38:38;;;;;;;2.63;2.30;;;0.70;98.30;;;;;;6265722;28;20107;-79
2023/02/27 07:41:40;;;;;;;3.00;2.70;;;0.80;98.20;;;;;;6266077;28;20057;-79
2023/02/27 07:44:43;;;;;;;2.93;2.67;;;0.90;98.00;;;;;;6266887;28;20116;-79
2023/02/27 07:47:45;;;;;;;3.87;2.10;;;1.00;97.80;;;;;;6261305;28;20045;-77
2023/02/27 07:50:48;;;;;;;4.43;3.03;;;1.10;97.80;;;;;;6255881;28;20048;-78
2023/02/27 07:53:50;;;;;;;2.22;1.88;;;1.30;97.60;;;;;;6255920;28;20050;-78
2023/02/27 07:56:51;;;;;;;6.05;1.98;;;1.50;97.50;;;;;;6256278;28;20144;-78
2023/02/27 07:59:53;;;;;;;5.18;2.58;;;1.60;97.00;;;;;;6254606;28;20060;-78
2023/02/27 08:02:55;;;;;;;5.10;2.97;;;1.70;97.10;;;;;;6254512;28;20049;-77
2023/02/27 08:05:58;;;;;;;5.55;3.95;;;1.80;96.60;;;;;;6256733;28;20052;-77
2023/02/27 08:08:59;;;;;;;7.43;2.78;;;1.90;96.50;;;;;;6250894;28;20132;-77
2023/02/27 08:12:02;;;;;;;3.85;2.45;;;2.00;96.00;;;;;;6251050;28;20045;-77
2023/02/27 08:15:04;;;;;;;3.83;2.25;;;2.10;96.00;;;;;;6253853;28;20049;-77
2023/02/27 08:18:06;;;;;;;5.13;2.58;;;2.20;95.80;;;;;;6225420;28;20046;-77
2023/02/27 08:21:09;;;;;;;2.65;2.03;;;2.30;95.50;;;;;;6243550;28;20050;-77
2023/02/27 08:24:11;;;;;;;8.75;2.78;;;2.40;95.20;;;;;;6254599;28;20046;-78
2023/02/27 08:27:13;;;;;;;5.20;2.70;;;2.50;94.80;;;;;;6240616;28;20053;-77
2023/02/27 08:30:15;;;;;;;3.95;2.17;;;2.50;94.50;;;;;;6256284;28;20531;-77
2023/02/27 08:33:17;;;;;;;2.72;2.53;;;2.60;94.40;;;;;;6255726;28;20128;-77
2023/02/27 08:36:20;;;;;;;6.53;2.53;;;2.70;94.20;;;;;;6257150;28;20049;-77
2023/02/27 08:39:23;;;;;;;3.63;2.40;;;2.90;94.50;;;;;;6254376;28;20049;-77
2023/02/27 08:42:24;;;;;;;6.95;2.28;;;3.10;94.00;;;;;;6255936;28;20045;-78
2023/02/27 08:45:26;;;;;;;4.30;3.03;;;3.30;93.70;;;;;;6253778;28;20056;-78
2023/02/27 08:48:28;;;;;;;3.10;2.40;;;3.40;93.70;;;;;;6257261;28;20068;-78
2023/02/27 08:51:31;;;;;;;3.33;2.25;;;3.40;93.40;;;;;;6264090;28;20060;-78
2023/02/27 08:54:33;;;;;;;3.08;2.35;;;3.40;93.20;;;;;;6258387;28;20075;-78
2023/02/27 08:57:34;;;;;;;4.28;2.67;;;3.50;93.10;;;;;;6259805;28;20301;-78
2023/02/27 09:00:36;;;;;;;4.88;2.38;;;3.60;92.70;;;;;;6253173;28;20077;-78
2023/02/27 09:03:38;;;;;;;2.75;1.80;;;3.70;92.90;;;;;;6250845;28;20046;-78
2023/02/27 09:06:41;;;;;;;6.22;3.40;;;3.90;92.80;;;;;;6246634;28;20046;-78
2023/02/27 09:09:42;;;;;;;4.28;2.38;;;4.20;92.90;;;;;;6246519;28;20077;-78
2023/02/27 09:12:44;;;;;;;7.13;3.95;;;4.50;92.10;;;;;;6250763;28;20042;-78
2023/02/27 09:15:47;;;;;;;6.03;3.58;;;4.60;91.20;;;;;;6250128;28;20045;-78
2023/02/27 09:18:50;;;;;;;4.88;2.35;;;4.60;90.70;;;;;;6249478;28;20519;-78
2023/02/27 09:21:53;;;;;;;3.50;2.72;;;4.60;90.70;;;;;;6254108;28;20053;-78
2023/02/27 09:24:54;;;;;;;3.10;1.75;;;4.60;89.70;;;;;;6254496;28;20041;-78
2023/02/27 09:27:56;;;;;;;9.93;2.53;;;4.50;89.50;;;;;;6256700;28;20041;-80
2023/02/27 09:31:04;;;;;;;6.00;2.42;;;4.60;90.10;;;;;;6256970;28;20060;-78
2023/02/27 09:34:06;;;;;;;4.82;2.20;;;4.90;90.10;;;;;;6255702;28;20041;-78
2023/02/27 09:37:09;;;;;;;2.97;1.98;;;4.90;90.10;;;;;;6250863;28;20042;-78
2023/02/27 09:40:19;;;;;;;4.10;1.77;;;5.00;87.80;;;;;;6255424;28;20060;-78
2023/02/27 09:43:25;;;;;;;2.25;1.50;;;5.10;87.50;;;;;;6257858;28;20057;-78
2023/02/27 09:46:28;;;;;;;3.97;2.13;;;5.20;86.30;;;;;;6256019;28;20053;-78
2023/02/27 09:49:34;;;;;;;4.45;1.73;;;5.20;85.90;;;;;;6251750;28;20082;-78
2023/02/27 09:52:37;;;;;;;4.28;2.50;;;5.30;86.00;;;;;;6251812;28;20056;-78
2023/02/27 09:55:41;;;;;;;3.08;2.47;;;5.40;85.60;;;;;;6246182;28;20045;-78
2023/02/27 09:58:49;;;;;;;3.13;1.25;;;5.40;84.10;;;;;;6249321;28;20053;-78
2023/02/27 10:01:55;;;;;;;2.60;2.05;;;5.30;82.90;;;;;;6255559;28;20053;-79
2023/02/27 10:05:02;;;;;;;4.43;2.38;;;5.20;83.60;;;;;;6254928;28;20103;-78
2023/02/27 10:08:16;;;;;;;1.75;1.55;;;5.40;83.30;;;;;;6257648;28;20044;-78
2023/02/27 10:11:30;;;;;;;4.47;2.60;;;5.70;83.60;;;;;;6260667;28;20045;-80
2023/02/27 10:14:39;;;;;;;3.83;2.60;;;5.90;81.90;;;;;;6256822;28;20045;-78
2023/02/27 10:17:47;;;;;;;6.20;5.40;;;6.00;81.40;;;;;;6257207;28;20049;-78
2023/02/27 10:20:53;;;;;;;4.70;2.17;;;6.10;81.30;;;;;;6258705;28;20057;-78
2023/02/27 10:24:01;;;;;;;4.03;2.05;;;6.10;79.90;;;;;;6259132;28;20091;-78
2023/02/27 10:27:05;;;;;;;6.03;3.00;;;6.10;78.20;;;;;;6258108;28;20042;-78
2023/02/27 10:30:20;;;;;;;7.90;3.97;;;6.00;78.50;;;;;;6257860;28;20137;-78
2023/02/27 10:33:26;;;;;;;3.13;1.83;;;6.10;79.10;;;;;;6258057;28;20060;-78
2023/02/27 10:36:29;;;;;;;3.35;2.42;;;6.20;77.70;;;;;;6252525;28;20045;-78
2023/02/27 10:39:42;;;;;;;2.10;1.90;;;6.30;77.70;;;;;;6258120;28;20056;-78
2023/02/27 10:42:44;;;;;;;2.53;1.50;;;6.40;77.70;;;;;;6258428;28;20045;-78
2023/02/27 10:45:46;;;;;;;2.33;1.27;;;6.40;76.40;;;;;;6257307;28;20053;-78
2023/02/27 10:48:48;;;;;;;4.50;1.73;;;6.40;76.10;;;;;;6258817;28;20049;-78
2023/02/27 10:52:05;;;;;;;5.32;1.60;;;6.50;76.80;;;;;;6255769;28;20061;-78
2023/02/27 10:55:18;;;;;;;1.23;1.13;;;6.70;76.10;;;;;;6257825;28;20538;-78
2023/02/27 10:58:20;;;;;;;4.10;2.55;;;7.00;75.40;;;;;;6250542;28;20054;-79
2023/02/27 11:01:22;;;;;;;1.30;1.08;;;7.10;74.30;;;;;;6252760;28;20060;-79
2023/02/27 11:04:28;;;;;;;3.63;2.85;;;7.10;74.30;;;;;;6253093;28;20124;-79
2023/02/27 11:07:32;;;;;;;2.55;1.20;;;7.30;74.30;;;;;;6252958;28;20042;-79
2023/02/27 11:10:35;;;;;;;2.25;2.00;;;7.50;73.20;;;;;;6252877;28;20057;-79
2023/02/27 11:13:39;;;;;;;7.53;2.95;;;7.70;73.70;;;;;;6253914;28;20054;-80
2023/02/27 11:16:49;;;;;;;2.40;1.85;;;7.70;73.00;;;;;;6253478;28;20487;-79
2023/02/27 11:19:51;;;;;;;5.63;3.45;;;7.80;72.90;;;;;;6252846;28;20364;-79
2023/02/27 11:23:03;;;;;;;2.95;1.92;;;7.60;71.60;;;;;;6252008;28;20543;-79
2023/02/27 11:26:15;;;;;;;2.80;1.88;;;7.40;70.80;;;;;;6252837;28;20049;-79
2023/02/27 11:29:19;;;;;;;3.90;2.85;;;7.30;71.80;;;;;;6253026;28;20050;-80
2023/02/27 11:32:21;;;;;;;2.78;1.83;;;7.60;71.20;;;;;;6252838;28;20057;-79
2023/02/27 11:35:28;;;;;;;1.92;1.80;;;7.60;70.40;;;;;;6253491;28;20049;-79
2023/02/27 11:38:31;;;;;;;1.95;1.30;;;7.80;71.20;;;;;;6253612;28;20041;-79
2023/02/27 11:41:36;;;;;;;1.58;1.48;;;8.10;70.00;;;;;;6252432;28;20053;-79
2023/02/27 11:44:40;;;;;;;2.78;1.63;;;8.20;70.10;;;;;;6253832;28;20060;-79
2023/02/27 11:47:46;;;;;;;1.60;1.48;;;8.50;70.00;;;;;;6253220;28;20048;-79
2023/02/27 11:50:57;;;;;;;2.70;2.33;;;8.30;68.80;;;;;;6252037;28;20100;-80
2023/02/27 11:54:10;;;;;;;6.55;1.98;;;8.00;68.60;;;;;;6251626;28;20507;-79
2023/02/27 11:57:24;;;;;;;2.92;1.58;;;7.70;68.70;;;;;;6252672;28;20069;-79
2023/02/27 12:00:31;;;;;;;3.03;2.58;;;7.50;68.30;;;;;;6252894;28;20140;-79
2023/02/27 12:03:42;;;;;;;3.58;1.55;;;7.30;69.30;;;;;;6256846;28;20045;-80
2023/02/27 12:06:48;;;;;;;4.40;1.65;;;7.60;69.10;;;;;;6257050;28;20042;-79
2023/02/27 12:09:58;;;;;;;2.42;2.13;;;7.70;68.20;;;;;;6255994;28;20053;-79
2023/02/27 12:13:06;;;;;;;2.70;2.05;;;7.70;68.70;;;;;;6253934;28;20049;-79
2023/02/27 12:16:17;;;;;;;2.40;1.35;;;7.90;67.40;;;;;;6252281;28;20049;-79
2023/02/27 12:19:26;;;;;;;2.35;2.10;;;7.90;67.50;;;;;;6252579;28;20046;-78
2023/02/27 12:22:32;;;;;;;2.33;2.20;;;8.10;67.60;;;;;;6253669;28;20046;-79
2023/02/27 12:25:39;;;;;;;3.85;2.28;;;8.20;65.50;;;;;;6253876;28;20050;-79
2023/02/27 12:28:55;;;;;;;4.40;1.58;;;8.00;66.10;;;;;;6253447;28;20049;-78
2023/02/27 12:32:01;;;;;;;3.17;2.88;;;8.40;66.70;;;;;;6249089;28;20050;-80
2023/02/27 12:35:13;;;;;;;1.65;1.25;;;8.50;65.40;;;;;;6252595;28;20049;-79
2023/02/27 12:38:15;;;;;;;2.25;1.67;;;8.70;65.00;;;;;;6253127;28;20052;-79
2023/02/27 12:41:35;;;;;;;1.73;1.42;;;8.70;64.40;;;;;;6252755;28;20060;-79
2023/02/27 12:44:55;;;;;;;1.63;1.35;;;8.70;64.60;;;;;;6253626;28;20053;-79
2023/02/27 12:48:09;;;;;;;3.80;2.63;;;8.90;63.00;;;;;;6251886;28;20440;-79
2023/02/27 12:51:28;;;;;;;3.03;1.42;;;9.10;63.00;;;;;;6249364;28;20582;-80
2023/02/27 12:54:36;;;;;;;1.65;1.55;;;9.00;63.10;;;;;;6248936;28;20056;-79
2023/02/27 12:57:53;;;;;;;2.42;1.45;;;8.90;62.50;;;;;;6253288;28;20150;-79
2023/02/27 13:00:59;;;;;;;2.03;1.58;;;8.80;62.50;;;;;;6253147;28;20056;-79
2023/02/27 13:04:06;;;;;;;2.75;1.92;;;8.40;61.70;;;;;;6255187;28;20049;-78
2023/02/27 13:07:13;;;;;;;3.90;1.75;;;8.10;61.70;;;;;;6255479;28;20048;-78
2023/02/27 13:10:19;;;;;;;3.42;1.30;;;7.70;61.80;;;;;;6249829;28;20706;-78
2023/02/27 13:13:28;;;;;;;2.83;1.60;;;7.30;62.20;;;;;;6250743;28;20048;-78
2023/02/27 13:16:35;;;;;;;3.58;1.20;;;7.40;64.00;;;;;;6247961;28;20080;-79
2023/02/27 13:19:41;;;;;;;12.20;2.50;;;7.50;62.10;;;;;;6253250;28;20057;-78
2023/02/27 13:22:51;;;;;;;2.28;1.50;;;7.70;62.00;;;;;;6252624;28;20045;-80
2023/02/27 13:25:55;;;;;;;3.00;2.80;;;7.70;61.40;;;;;;6257919;28;20392;-80
2023/02/27 13:28:59;;;;;;;2.45;2.25;;;7.60;61.40;;;;;;6253338;28;20545;-82
2023/02/27 13:32:12;;;;;;;2.58;1.70;;;7.60;61.20;;;;;;6260165;28;20037;-81
2023/02/27 13:35:28;;;;;;;2.10;1.95;;;7.60;61.70;;;;;;6253789;28;20041;-80
2023/02/27 13:38:42;;;;;;;2.08;1.77;;;7.80;61.50;;;;;;6253718;28;20045;-80
2023/02/27 13:41:43;;;;;;;9.70;8.80;;;7.70;61.50;;;;;;6252362;28;20045;-80
2023/02/27 13:44:48;;;;;;;4.80;4.38;;;7.80;61.80;;;;;;6252890;28;20139;-81
2023/02/27 13:47:51;;;;;;;3.55;2.80;;;8.10;61.90;;;;;;6254853;28;20063;-81
2023/02/27 13:50:52;;;;;;;3.33;3.13;;;8.30;61.30;;;;;;6253597;28;20075;-81
2023/02/27 13:54:21;;;;;;;4.00;2.42;;;8.50;60.90;;;;;;6252160;28;20640;-84
2023/02/27 13:57:27;;;;;;;2.40;2.05;;;8.70;60.50;;;;;;6258696;28;20058;-83
2023/02/27 14:00:31;;;;;;;5.93;1.77;;;8.70;59.90;;;;;;6255769;28;20050;-81
2023/02/27 14:03:34;;;;;;;1.80;1.58;;;8.40;59.40;;;;;;6254840;28;20089;-83
2023/02/27 14:06:44;;;;;;;3.13;2.13;;;8.40;59.10;;;;;;6260144;28;20049;-81
2023/02/27 14:09:47;;;;;;;3.25;2.95;;;8.00;59.80;;;;;;6255172;28;20048;-81
2023/02/27 14:12:49;;;;;;;2.50;2.30;;;7.70;60.50;;;;;;6256837;28;20057;-79
2023/02/27 14:15:59;;;;;;;5.88;3.50;;;8.00;61.10;;;;;;6251842;28;20503;-79
2023/02/27 14:19:02;;;;;;;2.33;2.13;;;8.20;61.10;;;;;;6259815;28;20503;-81
2023/02/27 14:22:36;;;;;;;1.88;1.77;;;8.20;60.10;;;;;;6261178;28;20068;-83
2023/02/27 14:25:42;;;;;;;3.97;2.03;;;8.50;60.70;;;;;;6256688;28;20530;-80
2023/02/27 14:28:49;;;;;;;2.08;1.95;;;8.40;59.60;;;;;;6257097;28;20041;-80
2023/02/27 14:31:52;;;;;;;2.65;2.10;;;8.20;59.80;;;;;;6258967;28;20060;-80
2023/02/27 14:34:55;;;;;;;3.60;1.67;;;7.70;59.80;;;;;;6253354;28;20761;-80
2023/02/27 14:38:03;;;;;;;4.10;2.15;;;7.70;60.40;;;;;;6257752;28;20049;-82
2023/02/27 14:41:22;;;;;;;3.40;2.33;;;7.80;60.60;;;;;;6263249;28;20045;-82
2023/02/27 14:44:24;;;;;;;;;;;8.00;60.50;;;;;;6262135;28;20147;-80
2023/02/27 14:47:31;;;;;;;1.67;1.58;;;8.20;60.50;;;;;;6254387;28;19928;-80
2023/02/27 14:50:36;;;;;;;5.55;2.15;;;8.50;59.60;;;;;;6256801;28;20430;-84
2023/02/27 14:53:39;;;;;;;3.13;1.50;;;8.50;58.90;;;;;;6254300;28;20128;-78
2023/02/27 14:56:52;;;;;;;3.25;1.95;;;8.20;59.20;;;;;;6256453;28;20069;-80
2023/02/27 14:59:54;;;;;;;4.57;3.15;;;7.60;58.60;;;;;;6259211;28;20128;-83
2023/02/27 15:02:58;;;;;;;3.90;2.05;;;7.50;60.20;;;;;;6259499;28;20048;-82
2023/02/27 15:06:03;;;;;;;2.65;2.22;;;7.70;60.80;;;;;;6256884;28;20049;-81
2023/02/27 15:09:07;;;;;;;2.80;2.25;;;7.80;60.80;;;;;;6262043;28;20045;-82
2023/02/27 15:12:10;;;;;;;2.80;2.38;;;7.60;60.60;;;;;;6262457;28;20055;-81
2023/02/27 15:15:17;;;;;;;3.70;1.40;;;7.30;60.40;;;;;;6256555;28;20052;-80
2023/02/27 15:18:23;;;;;;;4.68;2.35;;;6.90;60.30;;;;;;6256981;28;20381;-81
2023/02/27 15:21:27;;;;;;;2.53;2.25;;;6.50;61.00;;;;;;6260985;28;20049;-81
2023/02/27 15:24:32;;;;;;;3.97;2.20;;;6.10;61.50;;;;;;6258585;28;20057;-80
2023/02/27 15:27:36;;;;;;;2.45;1.77;;;5.90;61.90;;;;;;6255578;28;20042;-84
2023/02/27 15:30:38;;;;;;;3.17;2.60;;;5.70;62.30;;;;;;6262054;28;20053;-79
2023/02/27 15:33:42;;;;;;;1.92;1.77;;;5.60;62.50;;;;;;6260168;28;20049;-80
2023/02/27 15:36:47;;;;;;;3.13;2.78;;;5.40;63.10;;;;;;6263845;28;20048;-80
2023/02/27 15:39:52;;;;;;;5.45;1.95;;;5.30;63.50;;;;;;6266780;28;20037;-81
2023/02/27 15:42:54;;;;;;;3.30;2.47;;;5.20;63.70;;;;;;6256988;28;20050;-81
2023/02/27 15:45:57;;;;;;;2.13;1.98;;;5.00;63.80;;;;;;6264442;28;20046;-81
2023/02/27 15:48:59;;;;;;;1.30;1.20;;;5.00;64.00;;;;;;6262616;28;20071;-84
2023/02/27 15:52:05;;;;;;;2.67;2.47;;;5.00;64.40;;;;;;6265087;28;20236;-82
2023/02/27 15:55:14;;;;;;;2.97;2.45;;;4.90;64.60;;;;;;6265283;28;20091;-81
2023/02/27 15:58:23;;;;;;;1.70;1.60;;;4.80;64.70;;;;;;6259472;28;20041;-81
2023/02/27 16:01:28;;;;;;;5.85;2.83;;;4.70;65.00;;;;;;6260324;28;20069;-81
2023/02/27 16:04:32;;;;;;;3.05;1.30;;;4.70;65.20;;;;;;6262529;28;20152;-82
2023/02/27 16:07:41;;;;;;;2.22;1.52;;;4.60;64.80;;;;;;6262699;28;20084;-84
2023/02/27 16:10:46;;;;;;;2.92;1.90;;;4.50;64.80;;;;;;6264143;28;20052;-83
2023/02/27 16:13:48;;;;;;;7.45;5.50;;;4.50;65.10;;;;;;6262787;28;20053;-81
2023/02/27 16:16:55;;;;;;;2.28;2.08;;;4.40;65.70;;;;;;6266616;28;20050;-82